TOM1KY EGBB-LEAL
Flight info
| Callsign | TOM1KY |
|---|---|
| Flight time | 2h 16m |
| Altitude | 37000 |
| Route | CPT UN859 SOPIL DCT BALAN DCT LMG DCT PIMQO DCT AGN DCT ANETO DCT POSSY DCT XIMPE DCT RIMES N860 VLC |
| Aircraft | B38M/M-SDE1FGHILORVWXY/HB1 |
Departure
| Time | 2026-05-07 19:10 |
|---|---|
| Airport | Birmingham Airport (EGBB) |
Arrival
| Time | 2026-05-07 21:26 |
|---|---|
| Airport | Alicante-Elche Miguel Hernández Airport (LEAL) |
| Time | Latitude | Longitude | Altitude | Speed | Heading |
|---|---|---|---|---|---|
| 2026-05-07 18:51 | 52.45351 | -1.73704 | 326 ft | 0 kts | 146° |
| 2026-05-07 18:58 | 52.45357 | -1.73711 | 325 ft | 3 kts | 140° |
| 2026-05-07 18:58 | 52.45369 | -1.73735 | 322 ft | 3 kts | 109° |
| 2026-05-07 18:58 | 52.45370 | -1.73744 | 324 ft | 0 kts | 105° |
| 2026-05-07 19:00 | 52.45377 | -1.73770 | 322 ft | 3 kts | 128° |
| 2026-05-07 19:00 | 52.45390 | -1.73789 | 323 ft | 3 kts | 155° |
| 2026-05-07 19:01 | 52.45406 | -1.73796 | 323 ft | 3 kts | 183° |
| 2026-05-07 19:01 | 52.45416 | -1.73794 | 323 ft | 0 kts | 195° |
| 2026-05-07 19:03 | 52.45415 | -1.73794 | 323 ft | 1 kts | 195° |
| 2026-05-07 19:03 | 52.45400 | -1.73801 | 323 ft | 4 kts | 195° |
| 2026-05-07 19:04 | 52.45384 | -1.73808 | 324 ft | 1 kts | 195° |
| 2026-05-07 19:04 | 52.45381 | -1.73809 | 325 ft | 0 kts | 195° |
| 2026-05-07 19:04 | 52.45379 | -1.73813 | 325 ft | 1 kts | 222° |
| 2026-05-07 19:04 | 52.45356 | -1.73870 | 325 ft | 12 kts | 235° |
| 2026-05-07 19:05 | 52.45312 | -1.74005 | 322 ft | 14 kts | 267° |
| 2026-05-07 19:05 | 52.45350 | -1.74164 | 325 ft | 16 kts | 297° |
| 2026-05-07 19:05 | 52.45402 | -1.74331 | 326 ft | 17 kts | 297° |
| 2026-05-07 19:05 | 52.45459 | -1.74517 | 324 ft | 18 kts | 296° |
| 2026-05-07 19:06 | 52.45550 | -1.74656 | 325 ft | 20 kts | 326° |
| 2026-05-07 19:06 | 52.45871 | -1.75012 | 309 ft | 33 kts | 326° |
| 2026-05-07 19:06 | 52.46067 | -1.75231 | 308 ft | 35 kts | 326° |
| 2026-05-07 19:07 | 52.46271 | -1.75459 | 306 ft | 36 kts | 324° |
| 2026-05-07 19:07 | 52.46470 | -1.75679 | 306 ft | 27 kts | 326° |
| 2026-05-07 19:07 | 52.46590 | -1.75811 | 308 ft | 13 kts | 327° |
| 2026-05-07 19:07 | 52.46605 | -1.75827 | 309 ft | 0 kts | 326° |
| 2026-05-07 19:08 | 52.46606 | -1.75828 | 310 ft | 1 kts | 327° |
| 2026-05-07 19:08 | 52.46625 | -1.75858 | 311 ft | 8 kts | 301° |
| 2026-05-07 19:09 | 52.46601 | -1.75996 | 308 ft | 17 kts | 236° |
| 2026-05-07 19:09 | 52.46522 | -1.76065 | 309 ft | 9 kts | 155° |
| 2026-05-07 19:09 | 52.46505 | -1.76046 | 311 ft | 1 kts | 146° |
| 2026-05-07 19:09 | 52.46279 | -1.75796 | 311 ft | 79 kts | 146° |
| 2026-05-07 19:10 | 52.45641 | -1.75086 | 325 ft | 143 kts | 146° |
| 2026-05-07 19:10 | 52.44695 | -1.74043 | 642 ft | 172 kts | 148° |
| 2026-05-07 19:10 | 52.43711 | -1.72973 | 1608 ft | 168 kts | 148° |
| 2026-05-07 19:10 | 52.42735 | -1.71880 | 2372 ft | 177 kts | 147° |
| 2026-05-07 19:11 | 52.41659 | -1.70685 | 2798 ft | 200 kts | 150° |
| 2026-05-07 19:11 | 52.40287 | -1.69873 | 3402 ft | 211 kts | 166° |
| 2026-05-07 19:11 | 52.38876 | -1.69272 | 4337 ft | 215 kts | 166° |
| 2026-05-07 19:11 | 52.37412 | -1.68396 | 4901 ft | 235 kts | 154° |
| 2026-05-07 19:12 | 52.35894 | -1.67130 | 5454 ft | 253 kts | 154° |
| 2026-05-07 19:12 | 52.34255 | -1.65932 | 5816 ft | 260 kts | 159° |
| 2026-05-07 19:12 | 52.32574 | -1.64827 | 5935 ft | 260 kts | 159° |
| 2026-05-07 19:12 | 52.30885 | -1.63708 | 6264 ft | 264 kts | 159° |
| 2026-05-07 19:13 | 52.29205 | -1.62593 | 7264 ft | 261 kts | 159° |
| 2026-05-07 19:13 | 52.27497 | -1.61456 | 8056 ft | 269 kts | 160° |
| 2026-05-07 19:13 | 52.25757 | -1.60297 | 8959 ft | 271 kts | 160° |
| 2026-05-07 19:13 | 52.23992 | -1.59256 | 9785 ft | 275 kts | 165° |
| 2026-05-07 19:14 | 52.22153 | -1.58329 | 10575 ft | 278 kts | 165° |
| 2026-05-07 19:14 | 52.20296 | -1.57378 | 11363 ft | 281 kts | 164° |
| 2026-05-07 19:14 | 52.18423 | -1.56416 | 12164 ft | 283 kts | 165° |
| 2026-05-07 19:14 | 52.16529 | -1.55466 | 12968 ft | 286 kts | 165° |
| 2026-05-07 19:15 | 52.14604 | -1.54498 | 13660 ft | 294 kts | 165° |
| 2026-05-07 19:15 | 52.12641 | -1.53510 | 14368 ft | 297 kts | 165° |
| 2026-05-07 19:15 | 52.10652 | -1.52508 | 15048 ft | 301 kts | 165° |
| 2026-05-07 19:15 | 52.08636 | -1.51494 | 15729 ft | 305 kts | 165° |
| 2026-05-07 19:16 | 52.06594 | -1.50466 | 16406 ft | 309 kts | 165° |
| 2026-05-07 19:16 | 52.04524 | -1.49426 | 17075 ft | 313 kts | 165° |
| 2026-05-07 19:16 | 52.02433 | -1.48376 | 17740 ft | 317 kts | 165° |
| 2026-05-07 19:16 | 52.00314 | -1.47313 | 18353 ft | 320 kts | 165° |
| 2026-05-07 19:17 | 51.98173 | -1.46241 | 18906 ft | 324 kts | 165° |
| 2026-05-07 19:17 | 51.96008 | -1.45157 | 19478 ft | 326 kts | 165° |
| 2026-05-07 19:17 | 51.93825 | -1.44065 | 20028 ft | 329 kts | 165° |
| 2026-05-07 19:17 | 51.91627 | -1.42967 | 20592 ft | 332 kts | 165° |
| 2026-05-07 19:18 | 51.89411 | -1.41862 | 21140 ft | 335 kts | 165° |
| 2026-05-07 19:18 | 51.87928 | -1.41122 | 21492 ft | 337 kts | 165° |
| 2026-05-07 19:18 | 51.85683 | -1.40003 | 22027 ft | 339 kts | 165° |
| 2026-05-07 19:18 | 51.83415 | -1.38875 | 22549 ft | 342 kts | 165° |
| 2026-05-07 19:19 | 51.81135 | -1.37741 | 23067 ft | 345 kts | 165° |
| 2026-05-07 19:19 | 51.78081 | -1.36225 | 23704 ft | 348 kts | 165° |
| 2026-05-07 19:19 | 51.75759 | -1.35073 | 24122 ft | 350 kts | 165° |
| 2026-05-07 19:19 | 51.73422 | -1.33916 | 24527 ft | 352 kts | 165° |
| 2026-05-07 19:20 | 51.71837 | -1.33131 | 24814 ft | 354 kts | 165° |
| 2026-05-07 19:20 | 51.69479 | -1.31965 | 25215 ft | 356 kts | 165° |
| 2026-05-07 19:20 | 51.67103 | -1.30792 | 25632 ft | 358 kts | 165° |
| 2026-05-07 19:20 | 51.64715 | -1.29614 | 26021 ft | 360 kts | 165° |
| 2026-05-07 19:21 | 51.62312 | -1.28429 | 26412 ft | 362 kts | 166° |
| 2026-05-07 19:21 | 51.59896 | -1.27240 | 26784 ft | 364 kts | 165° |
| 2026-05-07 19:21 | 51.57470 | -1.26046 | 27158 ft | 366 kts | 166° |
| 2026-05-07 19:21 | 51.55032 | -1.24849 | 27526 ft | 368 kts | 166° |
| 2026-05-07 19:22 | 51.52581 | -1.23646 | 27875 ft | 370 kts | 166° |
| 2026-05-07 19:22 | 51.50112 | -1.22436 | 28228 ft | 372 kts | 165° |
| 2026-05-07 19:22 | 51.47673 | -1.20865 | 28269 ft | 385 kts | 156° |
| 2026-05-07 19:22 | 51.45217 | -1.19006 | 28292 ft | 395 kts | 158° |
| 2026-05-07 19:23 | 51.40104 | -1.15324 | 28344 ft | 416 kts | 158° |
| 2026-05-07 19:23 | 51.37444 | -1.13354 | 28327 ft | 427 kts | 158° |
| 2026-05-07 19:23 | 51.34729 | -1.11352 | 28604 ft | 430 kts | 158° |
| 2026-05-07 19:24 | 51.32007 | -1.09354 | 28967 ft | 432 kts | 158° |
| 2026-05-07 19:24 | 51.29265 | -1.07346 | 29283 ft | 434 kts | 158° |
| 2026-05-07 19:24 | 51.26511 | -1.05332 | 29616 ft | 436 kts | 158° |
| 2026-05-07 19:24 | 51.23744 | -1.03310 | 29934 ft | 438 kts | 158° |
| 2026-05-07 19:25 | 51.20962 | -1.01283 | 30220 ft | 441 kts | 158° |
| 2026-05-07 19:25 | 51.18160 | -0.99241 | 30489 ft | 442 kts | 158° |
| 2026-05-07 19:25 | 51.15355 | -0.97202 | 30759 ft | 444 kts | 158° |
| 2026-05-07 19:25 | 51.12536 | -0.95155 | 31019 ft | 446 kts | 158° |
| 2026-05-07 19:26 | 51.09742 | -0.93128 | 31289 ft | 447 kts | 158° |
| 2026-05-07 19:26 | 51.06902 | -0.91071 | 31539 ft | 449 kts | 158° |
| 2026-05-07 19:26 | 51.04050 | -0.89008 | 31786 ft | 451 kts | 158° |
| 2026-05-07 19:26 | 51.01193 | -0.86944 | 32117 ft | 451 kts | 158° |
| 2026-05-07 19:27 | 50.98338 | -0.84885 | 32480 ft | 450 kts | 158° |
| 2026-05-07 19:27 | 50.95488 | -0.82831 | 32833 ft | 449 kts | 158° |
| 2026-05-07 19:27 | 50.92646 | -0.80787 | 33177 ft | 448 kts | 158° |
| 2026-05-07 19:27 | 50.89812 | -0.78750 | 33517 ft | 448 kts | 158° |
| 2026-05-07 19:28 | 50.86976 | -0.76715 | 33858 ft | 447 kts | 158° |
| 2026-05-07 19:28 | 50.84243 | -0.74364 | 34156 ft | 449 kts | 149° |
| 2026-05-07 19:28 | 50.81624 | -0.71674 | 34401 ft | 449 kts | 150° |
| 2026-05-07 19:28 | 50.78990 | -0.69006 | 34617 ft | 450 kts | 150° |
| 2026-05-07 19:29 | 50.76359 | -0.66334 | 34850 ft | 450 kts | 150° |
| 2026-05-07 19:29 | 50.73725 | -0.63659 | 35080 ft | 450 kts | 150° |
| 2026-05-07 19:29 | 50.71085 | -0.60980 | 35307 ft | 450 kts | 150° |
| 2026-05-07 19:29 | 50.68449 | -0.58310 | 35531 ft | 451 kts | 150° |
| 2026-05-07 19:30 | 50.65808 | -0.55637 | 35751 ft | 451 kts | 150° |
| 2026-05-07 19:30 | 50.63172 | -0.52974 | 35968 ft | 451 kts | 150° |
| 2026-05-07 19:30 | 50.60524 | -0.50302 | 36181 ft | 451 kts | 150° |
| 2026-05-07 19:30 | 50.57877 | -0.47634 | 36393 ft | 452 kts | 150° |
| 2026-05-07 19:31 | 50.55233 | -0.44974 | 36592 ft | 452 kts | 150° |
| 2026-05-07 19:31 | 50.52583 | -0.42310 | 36780 ft | 452 kts | 150° |
| 2026-05-07 19:31 | 50.49932 | -0.39649 | 36967 ft | 452 kts | 150° |
| 2026-05-07 19:31 | 50.47274 | -0.36985 | 37065 ft | 453 kts | 150° |
| 2026-05-07 19:32 | 50.41994 | -0.31704 | 37060 ft | 452 kts | 150° |
| 2026-05-07 19:32 | 50.36684 | -0.26406 | 37055 ft | 452 kts | 150° |
| 2026-05-07 19:33 | 50.31401 | -0.21151 | 37055 ft | 452 kts | 150° |
| 2026-05-07 19:33 | 50.26087 | -0.15877 | 37052 ft | 452 kts | 150° |
| 2026-05-07 19:34 | 50.20772 | -0.10617 | 37053 ft | 452 kts | 150° |
| 2026-05-07 19:34 | 50.15462 | -0.05375 | 37052 ft | 452 kts | 150° |
| 2026-05-07 19:35 | 50.10073 | -0.00367 | 37033 ft | 447 kts | 162° |
| 2026-05-07 19:35 | 50.04124 | 0.02236 | 37042 ft | 445 kts | 167° |
| 2026-05-07 19:36 | 49.98118 | 0.04678 | 37042 ft | 446 kts | 168° |
| 2026-05-07 19:36 | 49.92109 | 0.07048 | 37049 ft | 446 kts | 168° |
| 2026-05-07 19:37 | 49.86092 | 0.09407 | 37048 ft | 446 kts | 168° |
| 2026-05-07 19:37 | 49.80119 | 0.11743 | 37032 ft | 446 kts | 168° |
| 2026-05-07 19:38 | 49.74108 | 0.14087 | 37024 ft | 446 kts | 168° |
| 2026-05-07 19:38 | 49.68089 | 0.16446 | 37038 ft | 446 kts | 168° |
| 2026-05-07 19:39 | 49.62088 | 0.18873 | 37049 ft | 446 kts | 168° |
| 2026-05-07 19:39 | 49.56076 | 0.21289 | 37281 ft | 446 kts | 168° |
| 2026-05-07 19:40 | 49.53073 | 0.22494 | 37442 ft | 447 kts | 168° |
| 2026-05-07 19:40 | 49.50059 | 0.23701 | 37611 ft | 447 kts | 168° |
| 2026-05-07 19:40 | 49.47044 | 0.24908 | 37788 ft | 447 kts | 168° |
| 2026-05-07 19:40 | 49.44032 | 0.26111 | 37926 ft | 448 kts | 168° |
| 2026-05-07 19:41 | 49.41006 | 0.27319 | 38097 ft | 448 kts | 168° |
| 2026-05-07 19:41 | 49.38030 | 0.28505 | 38254 ft | 448 kts | 168° |
| 2026-05-07 19:41 | 49.34971 | 0.29723 | 38406 ft | 448 kts | 168° |
| 2026-05-07 19:41 | 49.31989 | 0.30913 | 38560 ft | 448 kts | 167° |
| 2026-05-07 19:42 | 49.28977 | 0.32188 | 38688 ft | 448 kts | 167° |
| 2026-05-07 19:42 | 49.25968 | 0.33463 | 38804 ft | 449 kts | 167° |
| 2026-05-07 19:42 | 49.22963 | 0.34730 | 38919 ft | 447 kts | 167° |
| 2026-05-07 19:42 | 49.19962 | 0.35991 | 39013 ft | 447 kts | 167° |
| 2026-05-07 19:43 | 49.13954 | 0.38512 | 39023 ft | 448 kts | 167° |
| 2026-05-07 19:43 | 49.07930 | 0.41033 | 39018 ft | 448 kts | 167° |
| 2026-05-07 19:44 | 49.01954 | 0.43527 | 39023 ft | 448 kts | 167° |
| 2026-05-07 19:44 | 48.95936 | 0.46034 | 39022 ft | 448 kts | 167° |
| 2026-05-07 19:45 | 48.89927 | 0.48529 | 39021 ft | 448 kts | 167° |
| 2026-05-07 19:45 | 48.83905 | 0.51024 | 39017 ft | 448 kts | 167° |
| 2026-05-07 19:46 | 48.77883 | 0.53471 | 39018 ft | 448 kts | 168° |
| 2026-05-07 19:46 | 48.71845 | 0.55840 | 39018 ft | 448 kts | 168° |
| 2026-05-07 19:47 | 48.65808 | 0.58212 | 39019 ft | 448 kts | 168° |
| 2026-05-07 19:47 | 48.59770 | 0.60579 | 39015 ft | 447 kts | 168° |
| 2026-05-07 19:48 | 48.53784 | 0.62920 | 39014 ft | 447 kts | 168° |
| 2026-05-07 19:48 | 48.47731 | 0.65380 | 39015 ft | 447 kts | 167° |
| 2026-05-07 19:49 | 48.41725 | 0.67817 | 39012 ft | 447 kts | 168° |
| 2026-05-07 19:49 | 48.35734 | 0.70239 | 39015 ft | 447 kts | 168° |
| 2026-05-07 19:50 | 48.29721 | 0.72665 | 39008 ft | 447 kts | 168° |
| 2026-05-07 19:50 | 48.23700 | 0.75067 | 39013 ft | 447 kts | 168° |
| 2026-05-07 19:51 | 48.17674 | 0.77441 | 39006 ft | 447 kts | 168° |
| 2026-05-07 19:51 | 48.11647 | 0.79812 | 39007 ft | 447 kts | 168° |
| 2026-05-07 19:52 | 48.05622 | 0.82176 | 39000 ft | 448 kts | 168° |
| 2026-05-07 19:52 | 47.99588 | 0.84539 | 39000 ft | 448 kts | 168° |
| 2026-05-07 19:53 | 47.93602 | 0.86876 | 38999 ft | 448 kts | 168° |
| 2026-05-07 19:53 | 47.87577 | 0.89223 | 39001 ft | 447 kts | 168° |
| 2026-05-07 19:54 | 47.81546 | 0.91567 | 39003 ft | 448 kts | 168° |
| 2026-05-07 19:54 | 47.75515 | 0.93903 | 38998 ft | 447 kts | 168° |
| 2026-05-07 19:55 | 47.69483 | 0.96234 | 38998 ft | 448 kts | 168° |
| 2026-05-07 19:55 | 47.63448 | 0.98561 | 38998 ft | 448 kts | 168° |
| 2026-05-07 19:56 | 47.57405 | 1.00885 | 38998 ft | 448 kts | 168° |
| 2026-05-07 19:56 | 47.51365 | 1.03203 | 38995 ft | 448 kts | 168° |
| 2026-05-07 19:57 | 47.45328 | 1.05514 | 38996 ft | 448 kts | 168° |
| 2026-05-07 19:57 | 47.42283 | 1.06299 | 38979 ft | 441 kts | 182° |
| 2026-05-07 19:57 | 47.39266 | 1.06249 | 39005 ft | 440 kts | 182° |
| 2026-05-07 19:58 | 47.33127 | 1.06197 | 39001 ft | 442 kts | 183° |
| 2026-05-07 19:58 | 47.26969 | 1.06068 | 38998 ft | 441 kts | 184° |
| 2026-05-07 19:59 | 47.20826 | 1.05926 | 38998 ft | 441 kts | 184° |
| 2026-05-07 19:59 | 47.14688 | 1.05782 | 38998 ft | 441 kts | 184° |
| 2026-05-07 20:00 | 47.08583 | 1.05640 | 39003 ft | 441 kts | 184° |
| 2026-05-07 20:00 | 47.02447 | 1.05475 | 38997 ft | 441 kts | 185° |
| 2026-05-07 20:01 | 46.96307 | 1.05204 | 38999 ft | 441 kts | 184° |
| 2026-05-07 20:01 | 46.90154 | 1.04944 | 39004 ft | 441 kts | 184° |
| 2026-05-07 20:02 | 46.84058 | 1.04688 | 38995 ft | 441 kts | 184° |
| 2026-05-07 20:02 | 46.77920 | 1.04430 | 38993 ft | 441 kts | 184° |
| 2026-05-07 20:03 | 46.71778 | 1.04173 | 38987 ft | 441 kts | 184° |
| 2026-05-07 20:03 | 46.65644 | 1.03918 | 38992 ft | 441 kts | 184° |
| 2026-05-07 20:04 | 46.60549 | 1.03705 | 38990 ft | 441 kts | 184° |
| 2026-05-07 20:04 | 46.54412 | 1.03451 | 38988 ft | 441 kts | 184° |
| 2026-05-07 20:05 | 46.48268 | 1.03337 | 38986 ft | 441 kts | 183° |
| 2026-05-07 20:05 | 46.42129 | 1.03271 | 38986 ft | 441 kts | 183° |
| 2026-05-07 20:06 | 46.35986 | 1.03198 | 38984 ft | 440 kts | 183° |
| 2026-05-07 20:06 | 46.29864 | 1.03125 | 38980 ft | 440 kts | 183° |
| 2026-05-07 20:07 | 46.23741 | 1.03053 | 38983 ft | 440 kts | 183° |
| 2026-05-07 20:07 | 46.17651 | 1.02980 | 38980 ft | 440 kts | 183° |
| 2026-05-07 20:08 | 46.11531 | 1.02908 | 38978 ft | 440 kts | 183° |
| 2026-05-07 20:08 | 46.05397 | 1.02836 | 38984 ft | 440 kts | 183° |
| 2026-05-07 20:09 | 45.99267 | 1.02764 | 38991 ft | 440 kts | 183° |
| 2026-05-07 20:10 | 45.90109 | 1.02657 | 38990 ft | 441 kts | 183° |
| 2026-05-07 20:10 | 45.83966 | 1.02585 | 38993 ft | 441 kts | 183° |
| 2026-05-07 20:11 | 45.77854 | 1.03549 | 39004 ft | 445 kts | 173° |
| 2026-05-07 20:11 | 45.71756 | 1.05096 | 38989 ft | 445 kts | 173° |
| 2026-05-07 20:12 | 45.65698 | 1.06651 | 38983 ft | 445 kts | 173° |
| 2026-05-07 20:12 | 45.59596 | 1.08216 | 38974 ft | 445 kts | 173° |
| 2026-05-07 20:13 | 45.53504 | 1.09774 | 38979 ft | 445 kts | 173° |
| 2026-05-07 20:13 | 45.47406 | 1.11331 | 38980 ft | 445 kts | 173° |
| 2026-05-07 20:14 | 45.41313 | 1.12883 | 38976 ft | 444 kts | 173° |
| 2026-05-07 20:14 | 45.35257 | 1.14423 | 38968 ft | 444 kts | 173° |
| 2026-05-07 20:15 | 45.29167 | 1.15968 | 38967 ft | 445 kts | 173° |
| 2026-05-07 20:15 | 45.23072 | 1.17510 | 38970 ft | 444 kts | 173° |
| 2026-05-07 20:16 | 45.16968 | 1.18934 | 38953 ft | 441 kts | 181° |
| 2026-05-07 20:16 | 45.13945 | 1.18601 | 38970 ft | 434 kts | 192° |
| 2026-05-07 20:16 | 45.10957 | 1.17921 | 38963 ft | 436 kts | 192° |
| 2026-05-07 20:17 | 45.04957 | 1.16479 | 38968 ft | 438 kts | 192° |
| 2026-05-07 20:17 | 44.98961 | 1.14960 | 38964 ft | 437 kts | 193° |
| 2026-05-07 20:18 | 44.93001 | 1.13436 | 38967 ft | 438 kts | 193° |
| 2026-05-07 20:18 | 44.87002 | 1.11905 | 38966 ft | 438 kts | 193° |
| 2026-05-07 20:19 | 44.81002 | 1.10376 | 38964 ft | 438 kts | 193° |
| 2026-05-07 20:19 | 44.74994 | 1.08849 | 38964 ft | 438 kts | 193° |
| 2026-05-07 20:20 | 44.68985 | 1.07324 | 38965 ft | 439 kts | 193° |
| 2026-05-07 20:20 | 44.62977 | 1.05803 | 38964 ft | 439 kts | 193° |
| 2026-05-07 20:21 | 44.56953 | 1.04282 | 38960 ft | 439 kts | 193° |
| 2026-05-07 20:21 | 44.50976 | 1.02775 | 38960 ft | 440 kts | 193° |
| 2026-05-07 20:22 | 44.44950 | 1.01260 | 38957 ft | 440 kts | 193° |
| 2026-05-07 20:22 | 44.38909 | 0.99743 | 38955 ft | 441 kts | 192° |
| 2026-05-07 20:23 | 44.32862 | 0.98228 | 38956 ft | 441 kts | 193° |
| 2026-05-07 20:23 | 44.26819 | 0.96717 | 38956 ft | 441 kts | 193° |
| 2026-05-07 20:24 | 44.20771 | 0.95208 | 38956 ft | 441 kts | 193° |
| 2026-05-07 20:24 | 44.14755 | 0.93711 | 38960 ft | 441 kts | 193° |
| 2026-05-07 20:25 | 44.08700 | 0.92207 | 38958 ft | 441 kts | 193° |
| 2026-05-07 20:25 | 44.02650 | 0.90707 | 38955 ft | 441 kts | 193° |
| 2026-05-07 20:26 | 43.96605 | 0.89211 | 38950 ft | 441 kts | 193° |
| 2026-05-07 20:26 | 43.90590 | 0.87725 | 38949 ft | 441 kts | 193° |
| 2026-05-07 20:27 | 43.84572 | 0.86119 | 38943 ft | 440 kts | 194° |
| 2026-05-07 20:27 | 43.78556 | 0.84508 | 38943 ft | 440 kts | 194° |
| 2026-05-07 20:28 | 43.72533 | 0.82899 | 38946 ft | 440 kts | 193° |
| 2026-05-07 20:28 | 43.66508 | 0.81295 | 38948 ft | 440 kts | 194° |
| 2026-05-07 20:29 | 43.60484 | 0.79694 | 38950 ft | 441 kts | 194° |
| 2026-05-07 20:29 | 43.54492 | 0.78105 | 38947 ft | 441 kts | 193° |
| 2026-05-07 20:30 | 43.48467 | 0.76510 | 38947 ft | 441 kts | 193° |
| 2026-05-07 20:30 | 43.42435 | 0.74915 | 38949 ft | 441 kts | 194° |
| 2026-05-07 20:31 | 43.36398 | 0.73323 | 38941 ft | 441 kts | 194° |
| 2026-05-07 20:31 | 43.30348 | 0.71731 | 38948 ft | 442 kts | 194° |
| 2026-05-07 20:32 | 43.24307 | 0.70145 | 38954 ft | 442 kts | 194° |
| 2026-05-07 20:32 | 43.18275 | 0.68564 | 38956 ft | 441 kts | 194° |
| 2026-05-07 20:33 | 43.12281 | 0.66996 | 38955 ft | 441 kts | 194° |
| 2026-05-07 20:33 | 43.06244 | 0.65420 | 38967 ft | 441 kts | 194° |
| 2026-05-07 20:34 | 43.00206 | 0.63847 | 38963 ft | 441 kts | 194° |
| 2026-05-07 20:34 | 42.94176 | 0.62280 | 38970 ft | 441 kts | 194° |
| 2026-05-07 20:35 | 42.88182 | 0.60724 | 38979 ft | 440 kts | 194° |
| 2026-05-07 20:35 | 42.82152 | 0.59163 | 38990 ft | 440 kts | 194° |
| 2026-05-07 20:36 | 42.76137 | 0.57607 | 38989 ft | 440 kts | 194° |
| 2026-05-07 20:36 | 42.70128 | 0.56008 | 38998 ft | 439 kts | 199° |
| 2026-05-07 20:37 | 42.64603 | 0.52752 | 39003 ft | 434 kts | 207° |
| 2026-05-07 20:37 | 42.59117 | 0.49304 | 39001 ft | 434 kts | 208° |
| 2026-05-07 20:38 | 42.53677 | 0.45835 | 39014 ft | 435 kts | 208° |
| 2026-05-07 20:38 | 42.48208 | 0.42346 | 39020 ft | 435 kts | 208° |
| 2026-05-07 20:39 | 42.42734 | 0.38859 | 39013 ft | 434 kts | 208° |
| 2026-05-07 20:39 | 42.37261 | 0.35380 | 39010 ft | 435 kts | 208° |
| 2026-05-07 20:40 | 42.31782 | 0.31904 | 39001 ft | 435 kts | 208° |
| 2026-05-07 20:40 | 42.26297 | 0.28430 | 39000 ft | 435 kts | 208° |
| 2026-05-07 20:41 | 42.20808 | 0.24960 | 39001 ft | 435 kts | 208° |
| 2026-05-07 20:41 | 42.15315 | 0.21496 | 38995 ft | 435 kts | 208° |
| 2026-05-07 20:42 | 42.09826 | 0.18038 | 38989 ft | 435 kts | 208° |
| 2026-05-07 20:42 | 42.04062 | 0.15538 | 38995 ft | 442 kts | 190° |
| 2026-05-07 20:43 | 41.97936 | 0.14519 | 38985 ft | 445 kts | 191° |
| 2026-05-07 20:43 | 41.91780 | 0.13565 | 38990 ft | 445 kts | 191° |
| 2026-05-07 20:44 | 41.85666 | 0.12648 | 38988 ft | 445 kts | 191° |
| 2026-05-07 20:44 | 41.79513 | 0.11728 | 38982 ft | 445 kts | 191° |
| 2026-05-07 20:45 | 41.73364 | 0.10812 | 38981 ft | 444 kts | 191° |
| 2026-05-07 20:45 | 41.67213 | 0.09897 | 38983 ft | 444 kts | 191° |
| 2026-05-07 20:46 | 41.61068 | 0.08984 | 38981 ft | 444 kts | 191° |
| 2026-05-07 20:46 | 41.54920 | 0.08074 | 38981 ft | 444 kts | 191° |
| 2026-05-07 20:47 | 41.48774 | 0.07164 | 38975 ft | 444 kts | 191° |
| 2026-05-07 20:47 | 41.42614 | 0.06255 | 38979 ft | 444 kts | 191° |
| 2026-05-07 20:48 | 41.36496 | 0.05353 | 38976 ft | 444 kts | 191° |
| 2026-05-07 20:48 | 41.30342 | 0.04448 | 38978 ft | 444 kts | 191° |
| 2026-05-07 20:49 | 41.24185 | 0.03544 | 38975 ft | 444 kts | 191° |
| 2026-05-07 20:49 | 41.18068 | 0.02648 | 38972 ft | 444 kts | 191° |
| 2026-05-07 20:50 | 41.11900 | 0.01746 | 38975 ft | 445 kts | 191° |
| 2026-05-07 20:50 | 41.06791 | 0.00999 | 38973 ft | 445 kts | 191° |
| 2026-05-07 20:51 | 41.00633 | 0.00100 | 38973 ft | 445 kts | 191° |
| 2026-05-07 20:51 | 40.94474 | -0.00797 | 38977 ft | 445 kts | 191° |
| 2026-05-07 20:52 | 40.88304 | -0.01694 | 38980 ft | 445 kts | 192° |
| 2026-05-07 20:52 | 40.82172 | -0.02585 | 38971 ft | 445 kts | 192° |
| 2026-05-07 20:53 | 40.75983 | -0.03482 | 38980 ft | 446 kts | 192° |
| 2026-05-07 20:53 | 40.69829 | -0.04371 | 38981 ft | 446 kts | 192° |
| 2026-05-07 20:54 | 40.63645 | -0.05264 | 38987 ft | 447 kts | 192° |
| 2026-05-07 20:54 | 40.57488 | -0.06151 | 38982 ft | 447 kts | 192° |
| 2026-05-07 20:54 | 40.54470 | -0.06924 | 38973 ft | 437 kts | 203° |
| 2026-05-07 20:55 | 40.51551 | -0.08110 | 38982 ft | 439 kts | 202° |
| 2026-05-07 20:55 | 40.45688 | -0.10407 | 38970 ft | 439 kts | 202° |
| 2026-05-07 20:56 | 40.39875 | -0.12705 | 38972 ft | 439 kts | 202° |
| 2026-05-07 20:56 | 40.34015 | -0.15020 | 38965 ft | 439 kts | 202° |
| 2026-05-07 20:57 | 40.28159 | -0.17330 | 38961 ft | 438 kts | 202° |
| 2026-05-07 20:57 | 40.22353 | -0.19615 | 38875 ft | 437 kts | 203° |
| 2026-05-07 20:57 | 40.19427 | -0.20767 | 37960 ft | 441 kts | 203° |
| 2026-05-07 20:58 | 40.16455 | -0.21935 | 36893 ft | 448 kts | 204° |
| 2026-05-07 20:58 | 40.13483 | -0.23103 | 35937 ft | 454 kts | 204° |
| 2026-05-07 20:58 | 40.10465 | -0.24283 | 35488 ft | 447 kts | 205° |
| 2026-05-07 20:58 | 40.07501 | -0.25441 | 35102 ft | 440 kts | 205° |
| 2026-05-07 20:59 | 40.04589 | -0.26580 | 34705 ft | 434 kts | 206° |
| 2026-05-07 20:59 | 40.01705 | -0.27710 | 34187 ft | 431 kts | 206° |
| 2026-05-07 20:59 | 39.98870 | -0.28816 | 33681 ft | 428 kts | 206° |
| 2026-05-07 20:59 | 39.96013 | -0.29930 | 33142 ft | 425 kts | 206° |
| 2026-05-07 21:00 | 39.93192 | -0.31029 | 32628 ft | 421 kts | 206° |
| 2026-05-07 21:00 | 39.90384 | -0.32121 | 32113 ft | 418 kts | 207° |
| 2026-05-07 21:00 | 39.87604 | -0.33204 | 31585 ft | 415 kts | 207° |
| 2026-05-07 21:00 | 39.84874 | -0.34266 | 31108 ft | 411 kts | 207° |
| 2026-05-07 21:01 | 39.82140 | -0.35329 | 30626 ft | 409 kts | 207° |
| 2026-05-07 21:01 | 39.81216 | -0.35687 | 30473 ft | 408 kts | 207° |
| 2026-05-07 21:01 | 39.78771 | -0.36637 | 30062 ft | 405 kts | 207° |
| 2026-05-07 21:01 | 39.76065 | -0.37684 | 29550 ft | 403 kts | 207° |
| 2026-05-07 21:02 | 39.73395 | -0.38720 | 29096 ft | 398 kts | 206° |
| 2026-05-07 21:02 | 39.70749 | -0.39744 | 28624 ft | 395 kts | 206° |
| 2026-05-07 21:02 | 39.68156 | -0.40748 | 28205 ft | 392 kts | 206° |
| 2026-05-07 21:02 | 39.65545 | -0.41757 | 27786 ft | 389 kts | 205° |
| 2026-05-07 21:03 | 39.62970 | -0.42752 | 27357 ft | 385 kts | 205° |
| 2026-05-07 21:03 | 39.60400 | -0.43744 | 26919 ft | 382 kts | 205° |
| 2026-05-07 21:03 | 39.57860 | -0.44724 | 26500 ft | 379 kts | 205° |
| 2026-05-07 21:03 | 39.55327 | -0.45700 | 26085 ft | 377 kts | 204° |
| 2026-05-07 21:04 | 39.52851 | -0.46654 | 25688 ft | 374 kts | 204° |
| 2026-05-07 21:04 | 39.50359 | -0.47613 | 25297 ft | 372 kts | 204° |
| 2026-05-07 21:04 | 39.47878 | -0.48533 | 24907 ft | 371 kts | 202° |
| 2026-05-07 21:04 | 39.45397 | -0.49413 | 24462 ft | 366 kts | 202° |
| 2026-05-07 21:05 | 39.42945 | -0.50285 | 23778 ft | 365 kts | 201° |
| 2026-05-07 21:05 | 39.40505 | -0.51156 | 23123 ft | 361 kts | 201° |
| 2026-05-07 21:05 | 39.38093 | -0.52017 | 22416 ft | 357 kts | 201° |
| 2026-05-07 21:05 | 39.35711 | -0.52867 | 21742 ft | 354 kts | 200° |
| 2026-05-07 21:06 | 39.33372 | -0.53701 | 21094 ft | 350 kts | 200° |
| 2026-05-07 21:06 | 39.31038 | -0.54532 | 20596 ft | 343 kts | 200° |
| 2026-05-07 21:06 | 39.28767 | -0.55341 | 20223 ft | 332 kts | 199° |
| 2026-05-07 21:06 | 39.26565 | -0.56125 | 19877 ft | 324 kts | 199° |
| 2026-05-07 21:07 | 39.24356 | -0.56912 | 19504 ft | 333 kts | 199° |
| 2026-05-07 21:07 | 39.22103 | -0.57711 | 19154 ft | 337 kts | 199° |
| 2026-05-07 21:07 | 39.19862 | -0.58508 | 18810 ft | 338 kts | 198° |
| 2026-05-07 21:07 | 39.17595 | -0.59312 | 18465 ft | 336 kts | 198° |
| 2026-05-07 21:08 | 39.15341 | -0.60111 | 18092 ft | 334 kts | 198° |
| 2026-05-07 21:08 | 39.13111 | -0.60903 | 17709 ft | 332 kts | 198° |
| 2026-05-07 21:08 | 39.10911 | -0.61682 | 17349 ft | 330 kts | 198° |
| 2026-05-07 21:08 | 39.08695 | -0.62466 | 17000 ft | 329 kts | 198° |
| 2026-05-07 21:09 | 39.06487 | -0.63247 | 16657 ft | 327 kts | 198° |
| 2026-05-07 21:09 | 39.04292 | -0.64023 | 16310 ft | 326 kts | 198° |
| 2026-05-07 21:09 | 39.02108 | -0.64794 | 15965 ft | 325 kts | 198° |
| 2026-05-07 21:09 | 38.99927 | -0.65565 | 15623 ft | 324 kts | 198° |
| 2026-05-07 21:10 | 38.97750 | -0.66333 | 15288 ft | 322 kts | 197° |
| 2026-05-07 21:10 | 38.95624 | -0.67082 | 14948 ft | 320 kts | 197° |
| 2026-05-07 21:10 | 38.93486 | -0.67836 | 14621 ft | 318 kts | 197° |
| 2026-05-07 21:10 | 38.91351 | -0.68588 | 14285 ft | 316 kts | 197° |
| 2026-05-07 21:11 | 38.89244 | -0.69329 | 13957 ft | 314 kts | 197° |
| 2026-05-07 21:11 | 38.87136 | -0.70069 | 13604 ft | 312 kts | 197° |
| 2026-05-07 21:11 | 38.82992 | -0.71527 | 12912 ft | 308 kts | 197° |
| 2026-05-07 21:12 | 38.80927 | -0.72252 | 12581 ft | 305 kts | 197° |
| 2026-05-07 21:12 | 38.78878 | -0.72971 | 12262 ft | 303 kts | 197° |
| 2026-05-07 21:12 | 38.76854 | -0.73681 | 11951 ft | 300 kts | 197° |
| 2026-05-07 21:12 | 38.74843 | -0.74385 | 11632 ft | 298 kts | 197° |
| 2026-05-07 21:13 | 38.72852 | -0.75082 | 11318 ft | 295 kts | 197° |
| 2026-05-07 21:13 | 38.70874 | -0.75775 | 11008 ft | 293 kts | 197° |
| 2026-05-07 21:13 | 38.68935 | -0.76453 | 10702 ft | 291 kts | 197° |
| 2026-05-07 21:13 | 38.66983 | -0.77136 | 10404 ft | 292 kts | 196° |
| 2026-05-07 21:14 | 38.65030 | -0.77819 | 10252 ft | 288 kts | 196° |
| 2026-05-07 21:14 | 38.63111 | -0.78488 | 10115 ft | 283 kts | 196° |
| 2026-05-07 21:14 | 38.61218 | -0.79150 | 9934 ft | 281 kts | 196° |
| 2026-05-07 21:14 | 38.59356 | -0.79799 | 9717 ft | 278 kts | 196° |
| 2026-05-07 21:15 | 38.57519 | -0.80440 | 9569 ft | 269 kts | 196° |
| 2026-05-07 21:15 | 38.55730 | -0.81065 | 9429 ft | 261 kts | 197° |
| 2026-05-07 21:15 | 38.54068 | -0.81903 | 9165 ft | 256 kts | 215° |
| 2026-05-07 21:15 | 38.52818 | -0.83487 | 8854 ft | 252 kts | 238° |
| 2026-05-07 21:16 | 38.51841 | -0.85322 | 8574 ft | 249 kts | 231° |
| 2026-05-07 21:16 | 38.50665 | -0.86903 | 8305 ft | 247 kts | 224° |
| 2026-05-07 21:16 | 38.49392 | -0.88384 | 8031 ft | 246 kts | 222° |
| 2026-05-07 21:16 | 38.48091 | -0.89785 | 7755 ft | 244 kts | 220° |
| 2026-05-07 21:17 | 38.46758 | -0.91101 | 7516 ft | 240 kts | 217° |
| 2026-05-07 21:17 | 38.45385 | -0.92329 | 7230 ft | 239 kts | 214° |
| 2026-05-07 21:17 | 38.43980 | -0.93461 | 6944 ft | 239 kts | 211° |
| 2026-05-07 21:17 | 38.42554 | -0.94490 | 6669 ft | 238 kts | 208° |
| 2026-05-07 21:18 | 38.41075 | -0.95440 | 6377 ft | 237 kts | 205° |
| 2026-05-07 21:18 | 38.39571 | -0.96295 | 6087 ft | 236 kts | 202° |
| 2026-05-07 21:18 | 38.38016 | -0.96957 | 5801 ft | 234 kts | 191° |
| 2026-05-07 21:18 | 38.36419 | -0.97214 | 5622 ft | 227 kts | 176° |
| 2026-05-07 21:19 | 38.34971 | -0.96656 | 5559 ft | 210 kts | 146° |
| 2026-05-07 21:19 | 38.34068 | -0.95366 | 5490 ft | 191 kts | 114° |
| 2026-05-07 21:19 | 38.33653 | -0.93803 | 5356 ft | 184 kts | 104° |
| 2026-05-07 21:19 | 38.33361 | -0.92221 | 5202 ft | 183 kts | 102° |
| 2026-05-07 21:20 | 38.33104 | -0.90639 | 5058 ft | 182 kts | 101° |
| 2026-05-07 21:20 | 38.32867 | -0.89063 | 4911 ft | 181 kts | 100° |
| 2026-05-07 21:20 | 38.32638 | -0.87485 | 4722 ft | 180 kts | 100° |
| 2026-05-07 21:20 | 38.32415 | -0.85918 | 4503 ft | 179 kts | 100° |
| 2026-05-07 21:21 | 38.32195 | -0.84359 | 4279 ft | 178 kts | 100° |
| 2026-05-07 21:21 | 38.31979 | -0.82825 | 4062 ft | 178 kts | 100° |
| 2026-05-07 21:21 | 38.31763 | -0.81278 | 3834 ft | 177 kts | 100° |
| 2026-05-07 21:21 | 38.31552 | -0.79768 | 3612 ft | 170 kts | 100° |
| 2026-05-07 21:22 | 38.31349 | -0.78306 | 3419 ft | 166 kts | 99° |
| 2026-05-07 21:22 | 38.31150 | -0.76881 | 3206 ft | 160 kts | 99° |
| 2026-05-07 21:22 | 38.30960 | -0.75510 | 2973 ft | 155 kts | 99° |
| 2026-05-07 21:22 | 38.30772 | -0.74162 | 2772 ft | 154 kts | 99° |
| 2026-05-07 21:23 | 38.30584 | -0.72815 | 2559 ft | 155 kts | 99° |
| 2026-05-07 21:23 | 38.30399 | -0.71482 | 2367 ft | 155 kts | 99° |
| 2026-05-07 21:23 | 38.30211 | -0.70136 | 2154 ft | 154 kts | 99° |
| 2026-05-07 21:23 | 38.30024 | -0.68786 | 1952 ft | 154 kts | 99° |
| 2026-05-07 21:24 | 38.29836 | -0.67439 | 1738 ft | 154 kts | 99° |
| 2026-05-07 21:24 | 38.29649 | -0.66092 | 1529 ft | 154 kts | 98° |
| 2026-05-07 21:24 | 38.29464 | -0.64765 | 1320 ft | 154 kts | 99° |
| 2026-05-07 21:24 | 38.29282 | -0.63422 | 1113 ft | 152 kts | 98° |
| 2026-05-07 21:25 | 38.29092 | -0.62120 | 886 ft | 150 kts | 99° |
| 2026-05-07 21:25 | 38.28906 | -0.60786 | 714 ft | 152 kts | 98° |
| 2026-05-07 21:25 | 38.28724 | -0.59458 | 532 ft | 154 kts | 99° |
| 2026-05-07 21:25 | 38.28540 | -0.58140 | 307 ft | 151 kts | 99° |
| 2026-05-07 21:26 | 38.28361 | -0.56843 | 138 ft | 143 kts | 100° |
| 2026-05-07 21:26 | 38.28221 | -0.55845 | 104 ft | 82 kts | 99° |
| 2026-05-07 21:26 | 38.28147 | -0.55317 | 84 ft | 53 kts | 99° |
| 2026-05-07 21:26 | 38.28129 | -0.54982 | 73 ft | 31 kts | 81° |
| 2026-05-07 21:27 | 38.28180 | -0.54764 | 66 ft | 16 kts | 70° |
| 2026-05-07 21:27 | 38.28244 | -0.54751 | 64 ft | 12 kts | 293° |
| 2026-05-07 21:27 | 38.28257 | -0.54824 | 66 ft | 7 kts | 281° |
| 2026-05-07 21:27 | 38.28272 | -0.54937 | 69 ft | 18 kts | 280° |
| 2026-05-07 21:28 | 38.28296 | -0.55105 | 81 ft | 19 kts | 280° |
| 2026-05-07 21:28 | 38.28349 | -0.55204 | 88 ft | 12 kts | 8° |
| 2026-05-07 21:28 | 38.28411 | -0.55157 | 91 ft | 10 kts | 358° |
| 2026-05-07 21:28 | 38.28449 | -0.55256 | 95 ft | 17 kts | 280° |
| 2026-05-07 21:29 | 38.28467 | -0.55383 | 99 ft | 0 kts | 280° |
| 2026-05-07 21:29 | 38.28467 | -0.55384 | 99 ft | 1 kts | 280° |
| 2026-05-07 21:29 | 38.28480 | -0.55406 | 98 ft | 7 kts | 336° |
| 2026-05-07 21:30 | 38.28539 | -0.55405 | 96 ft | 7 kts | 8° |
| 2026-05-07 21:30 | 38.28548 | -0.55404 | 97 ft | 0 kts | 9° |